Kiefer, Oklahoma
Current Conditions -  °F | °C
As of 7:53 PM on Friday 24 Oct 2014 (Local Time) from KRVS Reporting Station
Clear Clear  
Wind Chill: 70°   Ceiling: Unl
Heat Index: 70°   Visibility: 10mi
Dew Point: 63°   Wind: 7mph
Humidity: 78%   Direction: 180°S
Pressure: 30.03"   Gusts: NA
Location:  35.94°N, 96.07°W
Report Text: KRVS 250053Z 18006KT 10SM CLR 21/17 A3003 RMK AO2 SLP177 T02110172
Loading
Personal Weather Stations






























Interactive Weather Map
Tropical Storm Tracking
New forecast layout! Learn more

10-Day Weather Forecast

Advertisements
Track Severe Weather on mobile